Time;durP1;ratioP1;P1;durP2;ratioP2;P2;SDS_P1;SDS_P2;PMS_P1;PMS_P2;Temp;Humidity;BMP_temperature;BMP_pressure;BME280_temperature;BME280_humidity;BME280_pressure;Samples;Min_cycle;Max_cycle;Signal;HPM_P1;HPM_P2
2022/07/06 00:01:44;;;;;;;1.90;1.25;;;14.80;5.50;;;;;;5103853;27;34393;-73
2022/07/06 00:04:10;;;;;;;3.38;1.50;;;14.70;5.80;;;;;;5103345;28;35662;-73
2022/07/06 00:06:36;;;;;;;3.80;1.50;;;14.70;6.00;;;;;;5121227;27;34154;-73
2022/07/06 00:09:03;;;;;;;2.67;1.77;;;14.60;6.40;;;;;;5103913;27;34154;-73
2022/07/06 00:11:29;;;;;;;2.75;1.52;;;14.50;6.40;;;;;;5087233;27;34248;-72
2022/07/06 00:13:56;;;;;;;2.50;1.55;;;14.50;6.50;;;;;;5107004;27;35917;-74
2022/07/06 00:16:22;;;;;;;3.75;1.50;;;14.40;6.60;;;;;;5105011;28;34355;-73
2022/07/06 00:18:49;;;;;;;1.55;1.45;;;14.40;6.70;;;;;;5086555;28;34197;-72
2022/07/06 00:21:15;;;;;;;3.67;1.27;;;14.30;6.90;;;;;;5104083;27;34147;-73
2022/07/06 00:23:41;;;;;;;1.65;1.55;;;14.30;6.90;;;;;;5125376;27;34291;-73
2022/07/06 00:26:07;;;;;;;1.60;1.50;;;14.20;7.00;;;;;;5102651;27;34190;-73
2022/07/06 00:28:33;;;;;;;1.63;1.30;;;14.20;7.10;;;;;;5103296;27;34162;-73
2022/07/06 00:30:59;;;;;;;3.92;1.80;;;14.20;7.10;;;;;;5120359;27;34595;-73
2022/07/06 00:33:25;;;;;;;1.45;1.23;;;14.10;7.20;;;;;;5104117;28;34215;-73
2022/07/06 00:35:51;;;;;;;2.50;1.90;;;14.10;7.30;;;;;;5086482;28;34098;-73
2022/07/06 00:38:18;;;;;;;1.45;1.35;;;14.10;7.30;;;;;;5104595;28;34501;-73
2022/07/06 00:40:44;;;;;;;1.67;1.40;;;14.00;7.20;;;;;;5114125;27;34061;-73
2022/07/06 00:43:10;;;;;;;1.50;1.40;;;13.90;7.40;;;;;;5097316;28;35471;-73
2022/07/06 00:45:36;;;;;;;1.33;1.23;;;13.90;7.90;;;;;;5104734;28;34124;-73
2022/07/06 00:48:02;;;;;;;1.67;1.58;;;13.90;7.50;;;;;;5086032;28;34330;-73
2022/07/06 00:50:28;;;;;;;3.70;1.60;;;13.80;7.50;;;;;;5103161;28;34222;-73
2022/07/06 00:52:58;;;;;;;2.63;1.50;;;13.80;7.50;;;;;;5103925;27;35372;-73
2022/07/06 00:55:27;;;;;;;1.73;1.55;;;13.80;7.90;;;;;;5103126;27;34123;-73
2022/07/06 00:57:53;;;;;;;1.73;1.33;;;13.70;7.80;;;;;;5123464;27;34273;-73
2022/07/06 01:00:22;;;;;;;1.33;1.23;;;13.70;7.60;;;;;;5095279;28;34129;-73
2022/07/06 01:02:49;;;;;;;1.67;1.35;;;13.70;7.90;;;;;;5120223;27;34979;-73
2022/07/06 01:05:15;;;;;;;1.40;1.30;;;13.60;7.70;;;;;;5085896;28;34137;-73
2022/07/06 01:07:44;;;;;;;1.60;1.35;;;13.60;7.90;;;;;;5102827;27;34301;-73
2022/07/06 01:10:12;;;;;;;2.20;1.50;;;13.50;8.00;;;;;;5086277;28;34411;-73
2022/07/06 01:12:41;;;;;;;3.50;1.85;;;13.50;8.00;;;;;;5103688;28;35192;-73
2022/07/06 01:15:12;;;;;;;2.42;1.70;;;13.40;8.00;;;;;;5131100;27;34245;-73
2022/07/06 01:17:40;;;;;;;1.60;1.30;;;13.40;8.10;;;;;;5123265;27;34106;-72
2022/07/06 01:20:22;;;;;;;1.40;1.30;;;13.40;8.20;;;;;;5125272;27;34039;-73
2022/07/06 01:22:49;;;;;;;1.40;1.30;;;13.30;10.70;;;;;;5144502;27;34161;-72
2022/07/06 01:25:16;;;;;;;1.90;1.70;;;13.20;8.00;;;;;;5126975;27;34230;-73
2022/07/06 01:27:43;;;;;;;2.05;1.40;;;13.20;8.00;;;;;;5107117;27;34568;-72
2022/07/06 01:30:12;;;;;;;1.88;1.63;;;13.10;8.10;;;;;;5089196;28;34285;-73
2022/07/06 01:32:39;;;;;;;2.60;1.40;;;13.10;8.50;;;;;;5110353;27;35875;-73
2022/07/06 01:35:06;;;;;;;1.50;1.40;;;13.00;8.20;;;;;;5093163;28;34175;-72
2022/07/06 01:37:32;;;;;;;1.25;1.15;;;13.00;8.30;;;;;;5089546;28;34388;-73
2022/07/06 01:40:00;;;;;;;1.70;1.60;;;12.90;8.30;;;;;;5106967;27;34161;-73
2022/07/06 01:42:27;;;;;;;3.55;1.75;;;12.90;8.40;;;;;;5088909;28;35590;-72
2022/07/06 01:44:54;;;;;;;2.08;1.75;;;12.80;8.50;;;;;;5107212;28;34053;-73
2022/07/06 01:47:20;;;;;;;1.55;1.45;;;12.80;8.50;;;;;;5088941;28;34192;-72
2022/07/06 01:49:46;;;;;;;1.63;1.52;;;12.80;8.40;;;;;;5111519;27;34124;-73
2022/07/06 01:52:12;;;;;;;3.17;1.48;;;12.70;8.60;;;;;;5127211;27;35181;-72
2022/07/06 01:54:38;;;;;;;2.03;1.67;;;12.60;8.40;;;;;;5127650;27;34114;-72
2022/07/06 01:57:04;;;;;;;1.63;1.52;;;12.60;8.60;;;;;;5113075;27;34163;-72
2022/07/06 01:59:30;;;;;;;1.65;1.55;;;12.60;8.70;;;;;;5088868;28;34518;-73
2022/07/06 02:01:56;;;;;;;3.38;1.55;;;12.50;8.70;;;;;;5088713;28;35947;-72
2022/07/06 02:04:22;;;;;;;1.52;1.42;;;12.50;8.70;;;;;;5088630;28;34301;-72
2022/07/06 02:06:48;;;;;;;3.20;1.27;;;12.50;8.80;;;;;;5089842;28;34206;-72
2022/07/06 02:09:14;;;;;;;1.55;1.45;;;12.40;8.80;;;;;;5088567;28;34370;-73
2022/07/06 02:11:40;;;;;;;4.15;1.30;;;12.40;8.80;;;;;;5102142;27;35804;-72
2022/07/06 02:14:06;;;;;;;1.70;1.60;;;12.30;8.70;;;;;;5098974;28;34142;-72
2022/07/06 02:16:32;;;;;;;1.70;1.60;;;12.30;8.70;;;;;;5106897;28;34173;-72
2022/07/06 02:18:58;;;;;;;2.17;1.70;;;12.20;8.70;;;;;;5088707;28;34401;-72
2022/07/06 02:21:23;;;;;;;1.70;1.40;;;12.10;8.90;;;;;;5139420;27;34362;-72
2022/07/06 02:23:49;;;;;;;1.50;1.40;;;12.10;9.00;;;;;;5125818;27;34307;-72
2022/07/06 02:26:15;;;;;;;1.50;1.20;;;12.10;9.00;;;;;;5143246;27;34189;-73
2022/07/06 02:28:41;;;;;;;2.03;1.40;;;12.00;9.50;;;;;;5127462;27;34187;-72
2022/07/06 02:31:07;;;;;;;3.95;1.45;;;11.90;9.00;;;;;;5105978;27;35508;-72
2022/07/06 02:33:33;;;;;;;1.40;1.30;;;11.90;9.10;;;;;;5114394;27;34083;-73
2022/07/06 02:35:59;;;;;;;1.58;1.27;;;11.80;9.10;;;;;;5122507;27;34286;-73
2022/07/06 02:38:25;;;;;;;1.63;1.52;;;11.80;9.80;;;;;;5088362;28;34001;-73
2022/07/06 02:40:51;;;;;;;2.60;1.50;;;11.70;9.40;;;;;;5088147;28;35641;-73
2022/07/06 02:43:17;;;;;;;1.70;1.52;;;11.70;9.40;;;;;;5091624;27;34166;-73
2022/07/06 02:45:43;;;;;;;2.08;1.45;;;11.70;9.50;;;;;;5122753;27;34186;-73
2022/07/06 02:48:09;;;;;;;2.75;1.52;;;11.70;9.50;;;;;;5087933;28;34433;-73
2022/07/06 02:50:34;;;;;;;1.40;1.30;;;11.70;9.60;;;;;;5104509;28;36292;-73
2022/07/06 02:53:01;;;;;;;1.75;1.25;;;11.60;9.50;;;;;;5070508;28;34232;-73
2022/07/06 02:55:27;;;;;;;1.30;1.20;;;11.60;9.50;;;;;;5087979;28;34635;-73
2022/07/06 02:57:54;;;;;;;1.50;1.40;;;11.60;9.60;;;;;;5123141;27;34313;-73
2022/07/06 03:00:20;;;;;;;1.60;1.50;;;11.60;9.50;;;;;;5110541;27;35197;-73
2022/07/06 03:02:45;;;;;;;1.80;1.42;;;11.50;9.60;;;;;;5071190;28;34505;-73
2022/07/06 03:05:11;;;;;;;1.42;1.30;;;11.50;9.80;;;;;;5105157;27;34123;-73
2022/07/06 03:07:37;;;;;;;1.63;1.40;;;11.40;9.60;;;;;;5122038;27;34581;-73
2022/07/06 03:10:04;;;;;;;1.42;1.33;;;11.40;9.70;;;;;;5121363;27;35553;-73
2022/07/06 03:12:29;;;;;;;3.92;1.67;;;11.40;9.70;;;;;;5113763;27;34334;-73
2022/07/06 03:14:55;;;;;;;2.22;1.48;;;11.30;9.80;;;;;;5100000;27;34170;-72
2022/07/06 03:17:21;;;;;;;2.17;1.70;;;11.30;9.90;;;;;;5117412;27;34156;-73
2022/07/06 03:19:47;;;;;;;1.60;1.50;;;11.30;9.90;;;;;;5123985;27;34778;-73
2022/07/06 03:22:13;;;;;;;2.22;1.60;;;11.20;9.90;;;;;;5104571;28;34132;-73
2022/07/06 03:24:40;;;;;;;1.27;1.23;;;11.20;10.00;;;;;;5121903;27;34188;-73
2022/07/06 03:27:05;;;;;;;1.45;1.30;;;11.10;9.90;;;;;;5105414;28;34051;-72
2022/07/06 03:29:32;;;;;;;1.92;1.45;;;11.10;10.00;;;;;;5104513;28;34741;-73
2022/07/06 03:31:58;;;;;;;1.45;1.35;;;11.00;10.10;;;;;;5105417;28;34252;-72
2022/07/06 03:34:24;;;;;;;1.98;1.50;;;11.00;10.10;;;;;;5121428;27;34231;-73
2022/07/06 03:36:50;;;;;;;1.60;1.40;;;11.00;10.10;;;;;;5105308;28;34109;-73
2022/07/06 03:39:16;;;;;;;1.38;1.27;;;11.00;10.00;;;;;;5087320;28;35555;-72
2022/07/06 03:41:42;;;;;;;2.00;1.38;;;10.90;10.00;;;;;;5104208;28;34459;-73
2022/07/06 03:44:08;;;;;;;1.52;1.42;;;10.90;10.10;;;;;;5086768;28;34365;-72
2022/07/06 03:46:34;;;;;;;1.70;1.60;;;10.80;10.10;;;;;;5104503;28;34099;-72
2022/07/06 03:49:00;;;;;;;4.88;1.50;;;10.80;10.20;;;;;;5111378;27;36140;-72
2022/07/06 03:51:25;;;;;;;1.38;1.25;;;10.80;10.20;;;;;;5141553;27;34507;-72
2022/07/06 03:53:51;;;;;;;1.70;1.42;;;10.80;10.20;;;;;;5124747;27;34203;-72
2022/07/06 03:59:02;;;;;;;2.50;1.42;;;10.80;10.30;;;;;;5109077;27;34476;-73
2022/07/06 04:01:29;;;;;;;1.77;1.35;;;10.70;10.70;;;;;;5086534;28;34068;-72
2022/07/06 04:03:56;;;;;;;1.73;1.40;;;10.70;10.40;;;;;;5114730;27;34098;-72
2022/07/06 04:06:22;;;;;;;2.00;1.48;;;10.70;10.40;;;;;;5108068;27;34333;-73
2022/07/06 04:08:48;;;;;;;1.73;1.63;;;10.70;10.50;;;;;;5107461;27;34691;-73
2022/07/06 04:11:14;;;;;;;1.40;1.30;;;10.70;10.50;;;;;;5100033;28;34142;-72
2022/07/06 04:13:40;;;;;;;1.73;1.63;;;10.60;10.30;;;;;;5120533;27;34033;-73
2022/07/06 04:16:06;;;;;;;1.58;1.42;;;10.60;10.40;;;;;;5113236;27;34070;-72
2022/07/06 04:18:33;;;;;;;1.50;1.40;;;10.60;10.50;;;;;;5107022;27;35613;-73
2022/07/06 04:20:59;;;;;;;2.83;1.90;;;10.60;10.40;;;;;;5106809;27;34211;-73
2022/07/06 04:23:25;;;;;;;1.75;1.60;;;10.60;10.40;;;;;;5123545;27;34196;-73
2022/07/06 04:25:51;;;;;;;1.88;1.77;;;10.60;10.40;;;;;;5095496;27;34359;-72
2022/07/06 04:28:17;;;;;;;3.35;1.70;;;10.60;10.40;;;;;;5125320;27;34917;-73
2022/07/06 04:30:43;;;;;;;1.75;1.63;;;10.60;10.40;;;;;;5089806;27;34140;-72
2022/07/06 04:33:09;;;;;;;1.60;1.50;;;10.70;10.50;;;;;;5106514;27;34390;-73
2022/07/06 04:35:35;;;;;;;1.60;1.50;;;10.70;10.60;;;;;;5098040;27;34301;-72
2022/07/06 04:38:01;;;;;;;1.40;1.30;;;10.60;10.40;;;;;;5103829;27;35626;-72
2022/07/06 04:40:27;;;;;;;2.00;1.80;;;10.60;10.50;;;;;;5115627;27;34285;-72
2022/07/06 04:42:53;;;;;;;2.40;1.45;;;10.60;10.50;;;;;;5110968;27;34341;-72
2022/07/06 04:45:19;;;;;;;2.83;1.80;;;10.70;10.90;;;;;;5103270;28;34192;-72
2022/07/06 04:47:45;;;;;;;2.65;1.73;;;10.70;10.90;;;;;;5102857;27;36499;-72
2022/07/06 04:50:13;;;;;;;1.95;1.70;;;10.70;11.00;;;;;;5130532;27;34296;-73
2022/07/06 04:52:38;;;;;;;3.67;1.70;;;10.80;11.10;;;;;;5107261;27;34460;-73
2022/07/06 04:55:05;;;;;;;2.13;1.75;;;10.80;11.00;;;;;;5102159;28;34086;-72
2022/07/06 04:57:32;;;;;;;3.58;1.70;;;10.90;11.00;;;;;;5091350;27;35572;-72
2022/07/06 04:59:58;;;;;;;2.60;1.65;;;10.90;10.90;;;;;;5106448;27;34299;-73
2022/07/06 05:02:24;;;;;;;1.67;1.58;;;10.90;11.00;;;;;;5106370;27;34365;-73
2022/07/06 05:04:50;;;;;;;3.03;1.83;;;11.00;11.10;;;;;;5124736;27;34253;-73
2022/07/06 05:07:16;;;;;;;2.53;1.92;;;11.10;11.20;;;;;;5138456;27;36363;-73
2022/07/06 05:09:42;;;;;;;2.47;1.50;;;11.10;11.30;;;;;;5102977;27;34179;-73
2022/07/06 05:12:09;;;;;;;4.07;1.80;;;11.10;11.20;;;;;;5085754;27;34096;-73
2022/07/06 05:14:36;;;;;;;2.20;1.80;;;11.20;11.20;;;;;;5140663;27;34409;-73
2022/07/06 05:17:02;;;;;;;2.35;1.92;;;11.30;11.20;;;;;;5140513;27;35759;-75
2022/07/06 05:19:28;;;;;;;2.30;2.08;;;11.40;11.20;;;;;;5112290;27;34230;-75
2022/07/06 05:21:54;;;;;;;2.65;2.45;;;11.50;11.20;;;;;;5116850;27;34177;-75
2022/07/06 05:24:20;;;;;;;4.28;3.05;;;11.80;11.10;;;;;;5105992;27;34138;-76
2022/07/06 05:26:46;;;;;;;5.35;2.78;;;12.30;10.70;;;;;;5106307;27;36394;-75
2022/07/06 05:29:13;;;;;;;4.10;2.88;;;13.10;9.90;;;;;;5139907;27;34226;-73
2022/07/06 05:31:39;;;;;;;2.42;2.22;;;14.20;8.50;;;;;;5111167;27;34181;-73
2022/07/06 05:34:05;;;;;;;3.20;2.50;;;15.30;7.10;;;;;;5119350;27;34479;-73
2022/07/06 05:36:31;;;;;;;3.05;2.50;;;16.50;5.50;;;;;;5103360;28;34733;-74
2022/07/06 05:38:57;;;;;;;3.60;2.03;;;17.60;4.20;;;;;;5085541;28;34225;-74
2022/07/06 05:41:23;;;;;;;2.33;2.10;;;18.60;3.00;;;;;;5154183;27;34254;-74
2022/07/06 05:43:49;;;;;;;2.50;1.90;;;19.50;2.10;;;;;;5145204;27;34335;-74
2022/07/06 05:46:15;;;;;;;1.98;1.88;;;20.20;1.10;;;;;;5160917;27;35671;-75
2022/07/06 05:51:22;;;;;;;3.00;2.35;;;21.60;1.00;;;;;;5122407;27;34327;-74
2022/07/06 05:53:47;;;;;;;2.13;1.83;;;22.30;1.00;;;;;;5106091;27;34330;-74
2022/07/06 05:56:14;;;;;;;1.85;1.60;;;22.80;1.00;;;;;;5106612;27;36402;-74
2022/07/06 05:58:58;;;;;;;2.70;1.83;;;23.20;1.00;;;;;;5121833;27;34148;-75
2022/07/06 06:01:24;;;;;;;5.18;2.00;;;23.60;1.00;;;;;;5123733;27;34334;-74
2022/07/06 06:03:50;;;;;;;6.45;1.77;;;23.80;1.00;;;;;;5090796;28;34459;-75
2022/07/06 06:06:16;;;;;;;5.05;2.10;;;24.20;1.00;;;;;;5090779;27;36565;-75
2022/07/06 06:08:42;;;;;;;2.10;1.90;;;24.60;1.00;;;;;;5092168;27;34207;-75
2022/07/06 06:11:09;;;;;;;2.35;1.77;;;25.00;1.00;;;;;;5143243;27;34240;-75
2022/07/06 06:13:35;;;;;;;2.67;2.08;;;25.40;1.00;;;;;;5126028;27;34656;-76
2022/07/06 06:16:00;;;;;;;3.15;1.70;;;25.70;1.00;;;;;;5091074;27;35809;-74
2022/07/06 06:18:26;;;;;;;3.83;1.77;;;25.80;1.00;;;;;;5109215;27;34339;-76
2022/07/06 06:20:53;;;;;;;3.10;1.77;;;26.10;1.00;;;;;;5143867;27;34070;-76
2022/07/06 06:23:19;;;;;;;3.20;1.27;;;26.50;1.00;;;;;;5124503;27;34439;-76
2022/07/06 06:25:44;;;;;;;3.15;1.42;;;26.70;1.00;;;;;;5087994;28;35757;-76
2022/07/06 06:28:11;;;;;;;2.75;1.58;;;27.10;1.00;;;;;;5138159;27;34331;-76
2022/07/06 06:30:39;;;;;;;4.68;1.40;;;27.50;1.00;;;;;;5144040;27;34263;-76
2022/07/06 06:33:09;;;;;;;3.17;1.40;;;27.40;1.00;;;;;;5100324;27;34515;-76
2022/07/06 06:35:36;;;;;;;4.57;1.55;;;27.40;1.00;;;;;;5106479;27;35983;-76
2022/07/06 06:38:02;;;;;;;2.55;1.20;;;27.40;1.00;;;;;;5142982;27;34091;-75
2022/07/06 06:40:28;;;;;;;2.80;1.40;;;27.30;1.00;;;;;;5120408;27;34373;-76
2022/07/06 06:42:53;;;;;;;2.67;1.20;;;27.40;1.00;;;;;;5108587;27;34392;-75
2022/07/06 06:45:19;;;;;;;1.65;1.30;;;27.50;1.00;;;;;;5125427;27;35819;-76
2022/07/06 06:47:46;;;;;;;2.63;1.38;;;27.70;1.00;;;;;;5126485;27;34250;-76
2022/07/06 06:50:12;;;;;;;4.95;1.42;;;27.90;1.00;;;;;;5164270;27;34131;-76
2022/07/06 06:52:37;;;;;;;2.05;1.27;;;28.10;1.00;;;;;;5127347;27;34025;-75
2022/07/06 06:55:04;;;;;;;1.75;1.10;;;28.20;1.00;;;;;;5099827;27;36246;-76
2022/07/06 06:57:30;;;;;;;2.75;1.05;;;28.30;1.00;;;;;;5087251;28;34250;-77
2022/07/06 06:59:57;;;;;;;1.65;1.13;;;28.10;1.00;;;;;;5104281;28;34131;-76
2022/07/06 07:02:23;;;;;;;7.10;1.00;;;27.90;1.00;;;;;;5088793;27;34299;-76
2022/07/06 07:04:49;;;;;;;0.95;0.90;;;27.90;1.00;;;;;;5116496;27;35999;-76
2022/07/06 07:07:15;;;;;;;2.20;1.00;;;27.90;1.00;;;;;;5104801;27;34189;-76
2022/07/06 07:09:41;;;;;;;2.58;1.30;;;28.10;1.00;;;;;;5087830;27;34261;-76
2022/07/06 07:12:08;;;;;;;2.60;1.10;;;27.90;1.00;;;;;;5112601;27;34135;-76
2022/07/06 07:14:34;;;;;;;3.17;1.15;;;27.80;1.00;;;;;;5099736;28;36459;-76
2022/07/06 07:17:00;;;;;;;1.92;0.98;;;27.80;1.00;;;;;;5067053;28;34262;-78
2022/07/06 07:19:26;;;;;;;0.95;0.88;;;27.90;1.00;;;;;;5084042;28;34260;-75
2022/07/06 07:21:52;;;;;;;2.47;1.00;;;27.80;1.00;;;;;;5077890;28;34500;-75
2022/07/06 07:24:18;;;;;;;4.40;1.10;;;27.80;1.00;;;;;;5103558;27;34226;-75
2022/07/06 07:26:43;;;;;;;3.85;1.00;;;27.80;1.00;;;;;;5074429;28;34362;-75
2022/07/06 07:29:09;;;;;;;1.45;0.80;;;27.80;1.00;;;;;;5083903;28;34204;-75
2022/07/06 07:31:35;;;;;;;2.15;0.90;;;27.80;1.00;;;;;;5085357;28;34327;-75
2022/07/06 07:34:01;;;;;;;3.08;1.00;;;27.70;1.00;;;;;;5083482;28;36494;-75
2022/07/06 07:36:27;;;;;;;1.42;0.88;;;27.40;1.00;;;;;;5101390;28;34155;-75
2022/07/06 07:38:53;;;;;;;2.67;0.90;;;27.30;1.00;;;;;;5084205;28;34152;-76
2022/07/06 07:41:19;;;;;;;0.65;0.65;;;27.30;1.00;;;;;;5084315;28;34428;-76
2022/07/06 07:43:45;;;;;;;1.80;0.82;;;27.40;1.00;;;;;;5087021;28;35613;-76
2022/07/06 07:46:11;;;;;;;0.95;0.90;;;27.50;1.00;;;;;;5102224;28;34098;-75
2022/07/06 07:48:40;;;;;;;1.40;0.90;;;27.40;1.00;;;;;;5132129;27;34283;-76
2022/07/06 07:51:06;;;;;;;1.48;0.90;;;27.20;1.00;;;;;;5119106;27;34249;-76
2022/07/06 07:53:32;;;;;;;2.15;0.90;;;27.00;1.00;;;;;;5105355;27;35111;-75
2022/07/06 07:55:58;;;;;;;0.60;0.60;;;27.20;1.00;;;;;;5104082;28;34329;-76
2022/07/06 07:58:24;;;;;;;0.70;0.60;;;27.00;1.00;;;;;;5104203;27;34083;-78
2022/07/06 08:00:50;;;;;;;0.80;0.80;;;26.90;1.00;;;;;;5104058;28;34224;-77
2022/07/06 08:03:16;;;;;;;1.35;0.68;;;26.90;1.00;;;;;;5103891;28;36022;-76
2022/07/06 08:05:42;;;;;;;1.10;0.88;;;26.50;1.00;;;;;;5105474;27;34210;-77
2022/07/06 08:08:08;;;;;;;1.30;0.73;;;26.30;1.00;;;;;;5086586;28;34396;-76
2022/07/06 08:10:34;;;;;;;1.30;0.70;;;26.30;1.00;;;;;;5105662;27;34357;-76
2022/07/06 08:13:00;;;;;;;3.70;0.73;;;26.60;1.00;;;;;;5103791;28;36170;-77
2022/07/06 08:15:26;;;;;;;1.73;0.80;;;26.90;1.00;;;;;;5087055;28;34148;-78
2022/07/06 08:17:52;;;;;;;2.00;0.60;;;27.10;1.00;;;;;;5103906;28;34295;-76
2022/07/06 08:20:18;;;;;;;2.30;0.50;;;27.00;1.00;;;;;;5086903;28;34228;-77
2022/07/06 08:22:44;;;;;;;1.85;0.73;;;27.00;1.00;;;;;;5103839;28;34825;-76
2022/07/06 08:25:11;;;;;;;1.00;0.70;;;26.70;1.00;;;;;;5103656;27;34275;-76
2022/07/06 08:27:37;;;;;;;0.75;0.55;;;26.70;1.00;;;;;;5104171;28;34426;-76
2022/07/06 08:30:04;;;;;;;0.50;0.50;;;26.90;1.00;;;;;;5085971;28;34191;-77
2022/07/06 08:32:30;;;;;;;4.03;0.70;;;27.10;1.00;;;;;;5103745;28;36480;-78
2022/07/06 08:34:56;;;;;;;1.05;0.60;;;27.50;1.00;;;;;;5102674;28;34111;-76
2022/07/06 08:37:22;;;;;;;0.80;0.57;;;27.30;1.00;;;;;;5066637;28;34084;-76
2022/07/06 08:39:48;;;;;;;1.48;0.60;;;26.90;1.00;;;;;;5070286;28;34025;-77
2022/07/06 08:42:16;;;;;;;0.70;0.50;;;26.50;1.00;;;;;;5104875;27;35364;-77
2022/07/06 08:44:44;;;;;;;2.70;0.70;;;26.50;1.00;;;;;;5138562;27;34335;-76
2022/07/06 08:47:10;;;;;;;1.17;0.68;;;26.30;1.00;;;;;;5150743;27;34209;-77
2022/07/06 08:49:37;;;;;;;1.08;0.60;;;26.00;1.00;;;;;;5111784;27;34486;-77
2022/07/06 08:52:05;;;;;;;0.68;0.68;;;25.70;1.00;;;;;;5117398;27;34162;-76
2022/07/06 08:54:31;;;;;;;3.70;0.70;;;25.50;1.00;;;;;;5103838;28;34098;-75
2022/07/06 08:56:58;;;;;;;1.13;0.60;;;25.30;1.00;;;;;;5110729;27;34241;-76
2022/07/06 08:59:25;;;;;;;3.33;0.70;;;25.40;1.00;;;;;;5101396;27;35348;-77
2022/07/06 09:01:51;;;;;;;3.17;1.17;;;25.30;1.00;;;;;;5123813;27;35604;-76
2022/07/06 09:04:21;;;;;;;0.90;0.68;;;25.20;1.00;;;;;;5110366;27;34175;-76
2022/07/06 09:06:48;;;;;;;4.35;0.80;;;25.40;1.00;;;;;;5121355;27;34035;-76
2022/07/06 09:09:21;;;;;;;3.28;0.65;;;25.90;1.00;;;;;;5133844;27;34631;-74
2022/07/06 09:11:47;;;;;;;1.60;0.70;;;26.20;1.00;;;;;;5137630;27;36241;-76
2022/07/06 09:14:14;;;;;;;1.55;0.57;;;26.40;1.00;;;;;;5103809;28;34201;-75
2022/07/06 09:16:40;;;;;;;1.65;0.85;;;26.50;1.00;;;;;;5103703;27;34164;-77
2022/07/06 09:19:09;;;;;;;3.22;0.85;;;26.80;1.00;;;;;;5099302;28;34436;-75
2022/07/06 09:21:36;;;;;;;2.55;0.70;;;26.90;1.00;;;;;;5103008;27;35523;-76
2022/07/06 09:24:07;;;;;;;2.67;0.70;;;26.90;1.00;;;;;;5102766;28;34539;-74
2022/07/06 09:26:34;;;;;;;2.92;0.60;;;26.90;1.00;;;;;;5103164;27;34103;-78
2022/07/06 09:29:00;;;;;;;1.05;0.70;;;26.90;1.00;;;;;;5105950;27;34387;-76
2022/07/06 09:31:27;;;;;;;1.13;0.70;;;27.20;1.00;;;;;;5124217;27;34190;-78
2022/07/06 09:34:10;;;;;;;1.70;0.55;;;27.00;1.00;;;;;;5121927;27;34186;-75
2022/07/06 09:36:45;;;;;;;3.85;0.70;;;26.70;1.00;;;;;;5102340;28;34186;-78
2022/07/06 09:39:27;;;;;;;0.57;0.57;;;26.30;1.00;;;;;;5118814;27;34336;-78
2022/07/06 09:41:57;;;;;;;2.45;0.60;;;25.90;1.00;;;;;;5125849;27;34163;-77
2022/07/06 09:44:28;;;;;;;1.33;0.52;;;25.50;1.00;;;;;;5127364;27;34234;-76
2022/07/06 09:47:05;;;;;;;1.63;0.70;;;25.50;1.00;;;;;;5112371;27;34344;-75
2022/07/06 09:49:32;;;;;;;0.68;0.60;;;25.50;1.00;;;;;;5106954;28;34211;-75
2022/07/06 09:52:04;;;;;;;1.60;0.60;;;25.80;1.00;;;;;;5089549;28;35915;-79
2022/07/06 09:54:32;;;;;;;1.60;0.60;;;25.70;1.00;;;;;;5106219;27;34424;-78
2022/07/06 09:56:58;;;;;;;1.88;0.80;;;25.50;1.00;;;;;;5106778;28;34091;-75
2022/07/06 09:59:26;;;;;;;2.90;0.80;;;25.60;1.00;;;;;;5106637;28;34284;-75
2022/07/06 10:01:55;;;;;;;1.60;0.80;;;26.00;1.00;;;;;;5105746;28;36484;-76
2022/07/06 10:04:22;;;;;;;1.42;0.98;;;26.00;1.00;;;;;;5089701;28;34199;-76
2022/07/06 10:06:49;;;;;;;0.68;0.68;;;25.80;1.00;;;;;;5106521;28;34404;-77
2022/07/06 10:09:15;;;;;;;1.83;0.50;;;25.40;1.00;;;;;;5106317;28;34121;-77
2022/07/06 10:11:50;;;;;;;0.63;0.63;;;25.40;1.00;;;;;;5105815;28;35555;-76
2022/07/06 10:14:26;;;;;;;1.27;0.50;;;25.80;1.00;;;;;;5106828;28;34072;-77
2022/07/06 10:16:54;;;;;;;1.27;0.70;;;26.10;1.00;;;;;;5088965;28;34092;-78
2022/07/06 10:19:21;;;;;;;0.80;0.50;;;26.40;1.00;;;;;;5089959;28;34621;-78
2022/07/06 10:21:47;;;;;;;3.42;0.65;;;26.70;1.00;;;;;;5106397;28;35683;-76
2022/07/06 10:24:14;;;;;;;0.90;0.73;;;27.10;1.00;;;;;;5106834;28;34226;-76
2022/07/06 10:26:41;;;;;;;2.40;0.52;;;27.30;1.00;;;;;;5107701;27;34297;-77
2022/07/06 10:29:07;;;;;;;1.35;0.50;;;27.60;1.00;;;;;;5107295;27;34250;-78
2022/07/06 10:31:38;;;;;;;1.25;0.60;;;27.80;1.00;;;;;;5106134;28;35827;-76
2022/07/06 10:34:06;;;;;;;1.95;0.65;;;27.90;1.00;;;;;;5089407;28;34144;-77
2022/07/06 10:36:38;;;;;;;2.35;0.60;;;27.70;1.00;;;;;;5106145;28;34205;-76
2022/07/06 10:41:02;;;;;;;1.13;0.60;;;27.60;1.00;;;;;;5105885;28;34548;-75
2022/07/06 10:41:50;;;;;;;1.60;0.60;;;27.30;1.00;;;;;;5090604;28;34397;-78
2022/07/06 10:44:20;;;;;;;2.05;0.50;;;27.20;1.00;;;;;;5103299;27;34159;-76
2022/07/06 10:47:01;;;;;;;0.80;0.80;;;27.10;1.00;;;;;;5086951;28;34138;-75
2022/07/06 10:49:27;;;;;;;1.65;0.52;;;27.00;1.00;;;;;;5102235;28;34475;-74
2022/07/06 10:51:56;;;;;;;1.10;0.70;;;27.00;1.00;;;;;;5098891;28;35715;-75
2022/07/06 10:54:24;;;;;;;1.13;0.57;;;26.80;1.00;;;;;;5088033;28;34230;-78
2022/07/06 10:56:51;;;;;;;1.05;0.60;;;26.30;1.00;;;;;;5106626;27;34463;-80
2022/07/06 10:59:19;;;;;;;0.77;0.77;;;26.30;1.00;;;;;;5123179;27;34136;-77
2022/07/06 11:02:20;;;;;;;0.68;0.68;;;26.30;1.00;;;;;;5089155;28;35653;-78
2022/07/06 11:04:48;;;;;;;0.93;0.60;;;26.30;1.00;;;;;;5118556;27;34210;-78
2022/07/06 11:07:16;;;;;;;1.65;0.60;;;26.30;1.00;;;;;;5105765;28;34005;-78
2022/07/06 11:09:55;;;;;;;2.63;0.70;;;26.40;1.00;;;;;;5089538;28;34067;-79
2022/07/06 11:12:21;;;;;;;1.30;0.70;;;26.40;1.00;;;;;;5106260;27;35315;-77
2022/07/06 11:14:50;;;;;;;1.67;0.70;;;26.40;1.00;;;;;;5094861;28;34471;-77
2022/07/06 11:17:17;;;;;;;1.48;0.60;;;26.40;1.00;;;;;;5082494;28;34100;-78
2022/07/06 11:19:54;;;;;;;2.10;0.90;;;26.50;1.00;;;;;;5064904;28;34397;-78
2022/07/06 11:22:20;;;;;;;2.95;0.60;;;26.60;1.00;;;;;;5121999;27;35978;-77
2022/07/06 11:24:47;;;;;;;0.55;0.55;;;26.70;1.00;;;;;;5121642;27;34164;-75
2022/07/06 11:27:13;;;;;;;1.65;0.82;;;26.80;1.00;;;;;;5105545;28;34252;-77
2022/07/06 11:29:39;;;;;;;1.77;0.80;;;26.90;1.00;;;;;;5088912;28;34197;-76
2022/07/06 11:32:10;;;;;;;5.78;0.75;;;27.00;1.00;;;;;;5106006;28;34207;-78
2022/07/06 11:34:38;;;;;;;1.52;0.95;;;27.30;1.00;;;;;;5121859;27;34333;-77
2022/07/06 11:37:11;;;;;;;1.00;0.70;;;27.50;1.00;;;;;;5071794;28;34044;-77
2022/07/06 11:39:40;;;;;;;2.38;0.85;;;27.60;1.00;;;;;;5088807;28;34057;-77
2022/07/06 11:42:07;;;;;;;1.25;0.70;;;27.60;1.00;;;;;;5088091;28;35993;-77
2022/07/06 11:44:35;;;;;;;2.03;0.80;;;27.60;1.00;;;;;;5105460;28;34229;-78
2022/07/06 11:47:03;;;;;;;1.20;0.80;;;27.60;1.00;;;;;;5087845;28;35238;-78
2022/07/06 11:49:31;;;;;;;2.45;0.73;;;27.70;1.00;;;;;;5088065;28;34025;-77
2022/07/06 11:51:57;;;;;;;2.20;1.08;;;27.70;1.00;;;;;;5119664;27;34535;-77
2022/07/06 11:54:24;;;;;;;2.30;0.70;;;27.70;1.00;;;;;;5108476;27;34368;-78
2022/07/06 11:56:52;;;;;;;1.67;0.65;;;27.50;1.00;;;;;;5126403;27;34163;-76
2022/07/06 11:59:24;;;;;;;1.27;0.60;;;27.30;1.00;;;;;;5143210;27;34086;-76
2022/07/06 12:02:00;;;;;;;3.13;0.70;;;27.10;1.00;;;;;;5104849;28;36640;-75
2022/07/06 12:04:26;;;;;;;2.45;0.90;;;27.00;1.00;;;;;;5105273;27;34299;-76
2022/07/06 12:06:51;;;;;;;3.35;0.95;;;26.80;1.00;;;;;;5139843;27;34417;-76
2022/07/06 12:09:19;;;;;;;1.92;0.88;;;26.60;1.00;;;;;;5135929;27;34664;-76
2022/07/06 12:11:46;;;;;;;2.55;0.80;;;26.50;1.00;;;;;;5113334;27;35219;-77
2022/07/06 12:14:15;;;;;;;4.32;0.90;;;26.60;1.00;;;;;;5125696;27;34164;-75
2022/07/06 12:16:41;;;;;;;3.08;1.02;;;26.60;1.00;;;;;;5124297;27;34079;-79
2022/07/06 12:19:08;;;;;;;2.55;0.75;;;26.50;1.00;;;;;;5141362;27;34135;-77
2022/07/06 12:21:35;;;;;;;2.13;0.85;;;26.30;1.00;;;;;;5124423;27;35135;-75
2022/07/06 12:24:01;;;;;;;7.82;0.90;;;26.10;1.00;;;;;;5123884;27;34364;-80
2022/07/06 12:26:29;;;;;;;1.58;1.02;;;26.10;1.00;;;;;;5115922;27;34682;-78
2022/07/06 12:29:13;;;;;;;1.60;0.70;;;26.00;1.00;;;;;;5139191;27;34666;-78
2022/07/06 12:31:43;;;;;;;0.75;0.75;;;26.00;1.00;;;;;;5109463;27;36012;-79
2022/07/06 12:34:15;;;;;;;0.93;0.50;;;26.00;1.00;;;;;;5100103;27;34337;-79
2022/07/06 12:36:52;;;;;;;1.90;0.80;;;26.00;1.00;;;;;;5101763;27;34439;-76
2022/07/06 12:39:20;;;;;;;0.85;0.68;;;25.90;1.00;;;;;;5107719;27;34217;-79
2022/07/06 12:41:56;;;;;;;1.25;0.93;;;25.80;1.00;;;;;;5130271;27;35494;-77
2022/07/06 12:44:24;;;;;;;1.05;0.70;;;25.80;1.00;;;;;;5121711;27;34665;-78
2022/07/06 12:47:07;;;;;;;2.10;1.10;;;25.80;1.00;;;;;;5132502;27;34461;-77
2022/07/06 12:49:34;;;;;;;0.85;0.70;;;25.80;1.00;;;;;;5130290;27;34212;-74
2022/07/06 12:52:11;;;;;;;3.70;0.90;;;25.80;1.00;;;;;;5104369;27;35772;-78
2022/07/06 12:54:46;;;;;;;1.13;0.80;;;25.80;1.00;;;;;;5114872;27;34119;-77
2022/07/06 12:57:16;;;;;;;2.25;0.80;;;25.80;1.00;;;;;;5101476;27;34134;-78
2022/07/06 12:59:45;;;;;;;1.83;0.85;;;25.70;1.00;;;;;;5110049;27;34178;-78
2022/07/06 13:02:29;;;;;;;1.35;0.90;;;25.70;1.00;;;;;;5106655;27;35744;-78